createdAt,value
2022-10-06T00:02:25.742Z,96317.63
2022-10-06T00:04:52.622Z,96320.31
2022-10-06T00:07:19.786Z,96317.25
2022-10-06T00:09:46.851Z,96312.88
2022-10-06T00:12:13.650Z,96324.47
2022-10-06T00:14:40.466Z,96312.88
2022-10-06T00:17:07.198Z,96316.50
2022-10-06T00:19:34.006Z,96305.06
2022-10-06T00:22:00.809Z,96305.69
2022-10-06T00:24:27.632Z,96310.84
2022-10-06T00:26:54.415Z,96309.19
2022-10-06T00:29:21.859Z,96309.19
2022-10-06T00:31:48.667Z,96306.13
2022-10-06T00:34:15.759Z,96311.06
2022-10-06T00:36:42.561Z,96301.06
2022-10-06T00:39:09.480Z,96302.72
2022-10-06T00:41:36.272Z,96299.56
2022-10-06T00:44:03.115Z,96300.59
2022-10-06T00:46:38.103Z,96296.69
2022-10-06T00:49:25.111Z,96289.91
2022-10-06T00:51:57.418Z,96284.97
2022-10-06T00:54:25.599Z,96283.53
2022-10-06T00:56:52.862Z,96281.06
2022-10-06T00:59:20.056Z,96278.63
2022-10-06T01:01:57.334Z,96268.75
2022-10-06T01:04:25.447Z,96274.13
2022-10-06T01:06:55.077Z,96268.16
2022-10-06T01:09:23.797Z,96270.63
2022-10-06T01:11:52.608Z,96264.03
2022-10-06T01:14:20.842Z,96263.78
2022-10-06T01:16:53.452Z,96253.59
2022-10-06T01:19:29.348Z,96252.66
2022-10-06T01:21:59.856Z,96255.75
2022-10-06T01:24:28.472Z,96255.56
2022-10-06T01:26:57.211Z,96249.91
2022-10-06T01:29:25.240Z,96248.25
2022-10-06T01:31:52.213Z,96245.56
2022-10-06T01:34:19.149Z,96249.06
2022-10-06T01:36:46.739Z,96243.31
2022-10-06T01:39:13.894Z,96247.78
2022-10-06T01:41:40.663Z,96248.81
2022-10-06T01:44:07.713Z,96247.97
2022-10-06T01:46:34.607Z,96253.03
2022-10-06T01:49:01.551Z,96250.78
2022-10-06T01:51:28.800Z,96246.44
2022-10-06T01:53:55.587Z,96248.19
2022-10-06T01:56:23.148Z,96257.97
2022-10-06T01:58:50.372Z,96256.34
2022-10-06T02:01:17.340Z,96254.91
2022-10-06T02:03:44.279Z,96250.19
2022-10-06T02:06:11.897Z,96249.38
2022-10-06T02:08:38.962Z,96257.16
2022-10-06T02:11:11.415Z,96248.94
2022-10-06T02:13:42.001Z,96250.88
2022-10-06T02:16:09.594Z,96251.00
2022-10-06T02:18:36.992Z,96249.59
2022-10-06T02:21:04.045Z,96246.09
2022-10-06T02:23:31.257Z,96246.09
2022-10-06T02:26:03.307Z,96247.13
2022-10-06T02:28:31.691Z,96253.28
2022-10-06T02:31:08.539Z,96248.34
2022-10-06T02:33:38.125Z,96246.50
2022-10-06T02:36:07.695Z,96242.19
2022-10-06T02:38:34.926Z,96243.19
2022-10-06T02:41:06.685Z,96249.78
2022-10-06T02:43:35.562Z,96247.31
2022-10-06T02:46:12.948Z,96256.88
2022-10-06T02:48:45.341Z,96256.25
2022-10-06T02:51:15.790Z,96255.34
2022-10-06T02:53:48.466Z,96257.19
2022-10-06T02:56:21.674Z,96263.06
2022-10-06T02:58:49.709Z,96256.91
2022-10-06T03:01:27.240Z,96253.41
2022-10-06T03:03:57.472Z,96265.53
2022-10-06T03:06:27.107Z,96252.06
2022-10-06T03:09:15.535Z,96252.28
2022-10-06T03:11:43.935Z,96259.06
2022-10-06T03:14:22.083Z,96263.19
2022-10-06T03:16:51.998Z,96250.72
2022-10-06T03:19:25.530Z,96255.66
2022-10-06T03:21:53.162Z,96257.50
2022-10-06T03:24:22.469Z,96257.00
2022-10-06T03:26:53.931Z,96253.72
2022-10-06T03:29:21.063Z,96259.06
2022-10-06T03:31:54.533Z,96248.16
2022-10-06T03:34:21.371Z,96247.53
2022-10-06T03:36:48.544Z,96244.16
2022-10-06T03:39:18.968Z,96236.16
2022-10-06T03:41:45.984Z,96240.56
2022-10-06T03:44:14.041Z,96247.94
2022-10-06T03:46:42.732Z,96241.16
2022-10-06T03:49:10.539Z,96232.03
2022-10-06T03:51:39.732Z,96239.75
2022-10-06T03:54:11.050Z,96242.50
2022-10-06T03:56:41.207Z,96247.13
2022-10-06T03:59:12.626Z,96243.94
2022-10-06T04:01:43.890Z,96249.16
2022-10-06T04:04:14.481Z,96242.59
2022-10-06T04:06:44.625Z,96241.06
2022-10-06T04:09:17.805Z,96244.56
2022-10-06T04:11:45.305Z,96244.66
2022-10-06T04:14:15.676Z,96240.81
2022-10-06T04:16:50.594Z,96241.84
2022-10-06T04:19:25.502Z,96247.91
2022-10-06T04:21:55.937Z,96241.25
2022-10-06T04:24:24.764Z,96240.53
2022-10-06T04:26:52.625Z,96242.38
2022-10-06T04:29:21.232Z,96243.28
2022-10-06T04:31:53.181Z,96242.75
2022-10-06T04:34:31.330Z,96248.28
2022-10-06T04:36:58.614Z,96258.66
2022-10-06T04:39:25.828Z,96253.81
2022-10-06T04:41:53.009Z,96255.66
2022-10-06T04:44:24.418Z,96261.63
2022-10-06T04:46:53.071Z,96257.31
2022-10-06T04:49:20.961Z,96252.16
2022-10-06T04:51:51.163Z,96258.84
2022-10-06T04:54:21.446Z,96247.41
2022-10-06T04:56:53.358Z,96260.00
2022-10-06T04:59:42.896Z,96264.94
2022-10-06T05:02:11.234Z,96266.38
2022-10-06T05:04:38.527Z,96268.56
2022-10-06T05:07:06.423Z,96266.94
2022-10-06T05:09:33.308Z,96270.00
2022-10-06T05:12:01.746Z,96272.16
2022-10-06T05:14:28.574Z,96271.97
2022-10-06T05:16:55.914Z,96273.94
2022-10-06T05:19:22.935Z,96270.78
2022-10-06T05:21:49.875Z,96266.16
2022-10-06T05:24:22.843Z,96265.25
2022-10-06T05:26:50.082Z,96265.94
2022-10-06T05:29:17.098Z,96260.69
2022-10-06T05:31:45.541Z,96266.06
2022-10-06T05:34:14.134Z,96261.75
2022-10-06T05:36:41.181Z,96261.94
2022-10-06T05:39:10.510Z,96258.75
2022-10-06T05:41:43.266Z,96263.88
2022-10-06T05:44:11.745Z,96266.66
2022-10-06T05:46:40.455Z,96261.28
2022-10-06T05:49:10.482Z,96269.50
2022-10-06T05:51:41.046Z,96268.69
2022-10-06T05:54:14.510Z,96268.88
2022-10-06T05:56:41.624Z,96275.63
2022-10-06T05:59:08.639Z,96279.22
2022-10-06T06:01:40.129Z,96286.88
2022-10-06T06:04:14.238Z,96287.03
2022-10-06T06:06:50.716Z,96284.66
2022-10-06T06:09:22.837Z,96279.00
2022-10-06T06:11:55.602Z,96275.78
2022-10-06T06:14:49.468Z,96272.09
2022-10-06T06:17:21.247Z,96276.97
2022-10-06T06:19:48.145Z,96276.84
2022-10-06T06:22:15.969Z,96284.34
2022-10-06T06:24:45.884Z,96285.78
2022-10-06T06:27:13.915Z,96286.59
2022-10-06T06:29:41.000Z,96295.63
2022-10-06T06:32:11.208Z,96284.81
2022-10-06T06:34:38.046Z,96273.56
2022-10-06T06:37:09.469Z,96286.47
2022-10-06T06:39:39.956Z,96286.00
2022-10-06T06:42:08.685Z,96283.16
2022-10-06T06:44:55.784Z,96286.69
2022-10-06T06:47:28.600Z,96286.91
2022-10-06T06:49:59.123Z,96276.22
2022-10-06T06:52:27.593Z,96284.47
2022-10-06T06:54:54.823Z,96273.09
2022-10-06T06:57:21.598Z,96277.47
2022-10-06T06:59:51.008Z,96270.53
2022-10-06T07:02:18.968Z,96269.75
2022-10-06T07:04:47.779Z,96263.13
2022-10-06T07:07:16.861Z,96264.88
2022-10-06T07:09:43.752Z,96265.38
2022-10-06T07:12:12.643Z,96255.56
2022-10-06T07:15:08.963Z,96260.78
2022-10-06T07:17:58.360Z,96262.75
2022-10-06T07:20:43.806Z,96266.31
2022-10-06T07:23:36.202Z,96260.44
2022-10-06T07:26:06.204Z,96252.25
2022-10-06T07:28:33.938Z,96252.16
2022-10-06T07:31:01.478Z,96259.56
2022-10-06T07:33:32.557Z,96250.78
2022-10-06T07:36:02.815Z,96246.19
2022-10-06T07:38:30.860Z,96247.06
2022-10-06T07:41:19.223Z,96235.22
2022-10-06T07:43:50.585Z,96245.22
2022-10-06T07:46:19.471Z,96246.28
2022-10-06T07:49:05.530Z,96244.94
2022-10-06T07:51:32.695Z,96247.63
2022-10-06T07:54:01.761Z,96253.94
2022-10-06T07:56:38.467Z,96241.34
2022-10-06T07:59:05.341Z,96245.81
2022-10-06T08:01:32.240Z,96253.59
2022-10-06T08:03:59.089Z,96252.47
2022-10-06T08:06:26.011Z,96244.53
2022-10-06T08:08:53.466Z,96245.19
2022-10-06T08:11:21.128Z,96248.38
2022-10-06T08:13:48.485Z,96250.63
2022-10-06T08:16:18.442Z,96242.53
2022-10-06T08:18:50.835Z,96234.69
2022-10-06T08:21:20.721Z,96246.19
2022-10-06T08:23:49.016Z,96236.31
2022-10-06T08:26:17.958Z,96238.78
2022-10-06T08:28:50.683Z,96232.97
2022-10-06T08:31:21.410Z,96234.97
2022-10-06T08:33:48.961Z,96228.25
2022-10-06T08:36:21.043Z,96230.97
2022-10-06T08:38:50.220Z,96223.56
2022-10-06T08:41:25.380Z,96220.22
2022-10-06T08:44:21.062Z,96217.41
2022-10-06T08:47:02.228Z,96218.59
2022-10-06T08:49:37.518Z,96222.13
2022-10-06T08:52:26.561Z,96217.59
2022-10-06T08:55:03.304Z,96218.75
2022-10-06T08:57:43.846Z,96215.63
2022-10-06T09:00:21.143Z,96219.22
2022-10-06T09:02:49.235Z,96223.31
2022-10-06T09:05:25.699Z,96216.28
2022-10-06T09:08:20.703Z,96213.47
2022-10-06T09:10:56.290Z,96219.16
2022-10-06T09:13:30.982Z,96209.66
2022-10-06T09:16:07.377Z,96211.88
2022-10-06T09:21:40.189Z,96200.34
2022-10-06T09:24:15.428Z,96202.88
2022-10-06T09:26:45.602Z,96194.22
2022-10-06T09:29:13.421Z,96191.19
2022-10-06T09:31:44.953Z,96188.81
2022-10-06T09:34:42.981Z,96194.88
2022-10-06T09:37:13.913Z,96182.94
2022-10-06T09:39:43.688Z,96171.25
2022-10-06T09:42:10.456Z,96182.75
2022-10-06T09:45:15.688Z,96181.06
2022-10-06T09:47:45.988Z,96178.38
2022-10-06T09:50:20.242Z,96175.59
2022-10-06T09:53:03.456Z,96178.09
2022-10-06T09:55:34.000Z,96170.28
2022-10-06T09:58:01.769Z,96167.25
2022-10-06T10:00:29.962Z,96163.56
2022-10-06T10:03:00.112Z,96168.97
2022-10-06T10:05:29.978Z,96168.59
2022-10-06T10:08:18.311Z,96169.47
2022-10-06T10:10:45.389Z,96157.44
2022-10-06T10:13:25.796Z,96162.25
2022-10-06T10:15:58.569Z,96154.13
2022-10-06T10:18:28.976Z,96151.25
2022-10-06T10:21:10.667Z,96140.78
2022-10-06T10:23:42.802Z,96153.94
2022-10-06T10:26:58.028Z,96149.91
2022-10-06T10:30:08.074Z,96144.50
2022-10-06T10:33:03.110Z,96145.44
2022-10-06T10:35:34.421Z,96130.13
2022-10-06T10:38:21.502Z,96131.00
2022-10-06T10:41:03.027Z,96139.25
2022-10-06T10:43:36.227Z,96124.22
2022-10-06T10:46:19.255Z,96119.69
2022-10-06T10:49:10.024Z,96122.00
2022-10-06T10:51:40.482Z,96108.44
2022-10-06T10:54:29.198Z,96105.81
2022-10-06T10:56:56.007Z,96109.75
2022-10-06T10:59:45.779Z,96102.94
2022-10-06T11:02:22.941Z,96106.38
2022-10-06T11:04:53.400Z,96104.34
2022-10-06T11:07:27.165Z,96092.19
2022-10-06T11:10:03.481Z,96107.44
2022-10-06T11:12:34.089Z,96093.03
2022-10-06T11:15:05.120Z,96087.97
2022-10-06T11:17:44.569Z,96083.31
2022-10-06T11:20:33.212Z,96087.75
2022-10-06T11:23:11.454Z,96077.84
2022-10-06T11:26:02.962Z,96078.03
2022-10-06T11:28:56.320Z,96072.34
2022-10-06T11:31:28.495Z,96060.97
2022-10-06T11:33:59.396Z,96054.94
2022-10-06T11:36:32.678Z,96054.53
2022-10-06T11:39:08.193Z,96050.09
2022-10-06T11:41:44.078Z,96051.72
2022-10-06T11:44:19.845Z,96052.09
2022-10-06T11:46:55.707Z,96045.69
2022-10-06T11:49:32.684Z,96039.59
2022-10-06T11:52:11.694Z,96036.22
2022-10-06T11:54:44.842Z,96031.69
2022-10-06T11:57:29.428Z,96038.31
2022-10-06T12:00:17.601Z,96028.88
2022-10-06T12:02:46.394Z,96025.03
2022-10-06T12:05:47.185Z,96025.38
2022-10-06T12:08:01.019Z,96024.91
2022-10-06T12:10:27.899Z,96021.66
2022-10-06T12:13:51.382Z,96020.75
2022-10-06T12:18:59.219Z,96018.16
2022-10-06T12:21:50.796Z,96020.88
2022-10-06T12:24:26.637Z,96015.63
2022-10-06T12:27:17.488Z,96003.78
2022-10-06T12:29:53.074Z,96001.47
2022-10-06T12:32:37.759Z,96009.41
2022-10-06T12:35:25.451Z,95997.25
2022-10-06T12:37:54.953Z,95994.03
2022-10-06T12:40:37.557Z,95997.50
2022-10-06T12:43:19.561Z,95987.56
2022-10-06T12:46:12.734Z,95990.69
2022-10-06T12:48:54.515Z,95982.44
2022-10-06T12:51:40.162Z,95991.66
2022-10-06T12:54:28.242Z,95991.13
2022-10-06T12:57:00.467Z,95987.19
2022-10-06T12:59:27.277Z,95983.88
2022-10-06T13:01:58.505Z,95980.44
2022-10-06T13:04:44.120Z,95973.91
2022-10-06T13:07:13.768Z,95970.34
2022-10-06T13:09:41.409Z,95966.47
2022-10-06T13:12:25.550Z,95968.25
2022-10-06T13:15:15.404Z,95962.88
2022-10-06T13:17:50.185Z,95960.44
2022-10-06T13:20:36.846Z,95962.03
2022-10-06T13:23:08.849Z,95952.88
2022-10-06T13:25:46.557Z,95951.41
2022-10-06T13:28:29.454Z,95956.66
2022-10-06T13:34:09.752Z,95957.00
2022-10-06T13:36:42.224Z,95956.88
2022-10-06T13:39:27.163Z,95943.78
2022-10-06T13:41:53.904Z,95953.97
2022-10-06T13:45:00.469Z,95954.28
2022-10-06T13:47:31.948Z,95951.28
2022-10-06T13:50:06.789Z,95950.56
2022-10-06T13:52:36.361Z,95953.69
2022-10-06T13:55:06.150Z,95949.38
2022-10-06T13:57:45.388Z,95939.66
2022-10-06T14:00:15.136Z,95950.34
2022-10-06T14:02:43.887Z,95959.72
2022-10-06T14:05:23.094Z,95944.47
2022-10-06T14:07:50.805Z,95957.72
2022-10-06T14:10:21.910Z,95945.47
2022-10-06T14:12:49.666Z,95952.16
2022-10-06T14:15:20.430Z,95949.38
2022-10-06T14:17:54.473Z,95955.47
2022-10-06T14:20:48.023Z,95946.91
2022-10-06T14:23:50.028Z,95957.16
2022-10-06T14:26:19.557Z,95956.22
2022-10-06T14:28:51.658Z,95961.53
2022-10-06T14:31:20.160Z,95957.13
2022-10-06T14:33:49.493Z,95964.59
2022-10-06T14:36:19.494Z,95957.84
2022-10-06T14:38:47.605Z,95966.91
2022-10-06T14:41:19.047Z,95962.69
2022-10-06T14:43:47.900Z,95969.28
2022-10-06T14:46:15.673Z,95959.88
2022-10-06T14:48:42.633Z,95961.09
2022-10-06T14:51:10.191Z,95973.25
2022-10-06T14:53:39.538Z,95966.97
2022-10-06T14:56:14.187Z,95974.69
2022-10-06T14:58:45.873Z,95972.53
2022-10-06T15:01:15.926Z,95970.41
2022-10-06T15:03:48.248Z,95978.00
2022-10-06T15:06:34.649Z,95978.88
2022-10-06T15:09:01.466Z,95975.47
2022-10-06T15:11:29.243Z,95980.56
2022-10-06T15:13:58.832Z,95973.50
2022-10-06T15:16:26.906Z,95979.81
2022-10-06T15:18:53.767Z,95976.13
2022-10-06T15:21:21.333Z,95976.28
2022-10-06T15:23:52.258Z,95986.59
2022-10-06T15:26:37.809Z,95988.81
2022-10-06T15:29:04.903Z,95991.16
2022-10-06T15:31:34.774Z,95993.88
2022-10-06T15:34:03.746Z,95993.47
2022-10-06T15:36:33.192Z,95991.31
2022-10-06T15:39:06.032Z,95994.69
2022-10-06T15:41:34.869Z,95989.59
2022-10-06T15:44:02.569Z,95994.63
2022-10-06T15:46:39.770Z,95995.53
2022-10-06T15:49:15.329Z,95987.97
2022-10-06T15:51:49.038Z,96000.44
2022-10-06T15:54:27.256Z,95999.81
2022-10-06T15:56:59.416Z,96001.69
2022-10-06T15:59:27.340Z,95992.44
2022-10-06T16:02:00.231Z,95994.53
2022-10-06T16:04:37.985Z,95997.91
2022-10-06T16:07:06.534Z,96011.66
2022-10-06T16:09:42.088Z,96008.75
2022-10-06T16:12:11.486Z,96001.47
2022-10-06T16:14:38.265Z,96012.69
2022-10-06T16:17:07.240Z,96016.53
2022-10-06T16:19:37.037Z,96012.38
2022-10-06T16:22:05.846Z,96019.41
2022-10-06T16:24:32.884Z,96019.78
2022-10-06T16:27:00.286Z,96016.16
2022-10-06T16:29:28.196Z,96014.34
2022-10-06T16:31:55.881Z,96028.63
2022-10-06T16:34:23.161Z,96027.09
2022-10-06T16:36:49.980Z,96027.38
2022-10-06T16:39:19.501Z,96034.81
2022-10-06T16:41:46.347Z,96041.59
2022-10-06T16:44:13.354Z,96039.13
2022-10-06T16:46:40.661Z,96049.63
2022-10-06T16:49:09.369Z,96049.81
2022-10-06T16:51:38.385Z,96049.53
2022-10-06T16:54:08.061Z,96045.84
2022-10-06T16:56:41.226Z,96051.88
2022-10-06T16:59:19.918Z,96063.03
2022-10-06T17:01:48.033Z,96053.69
2022-10-06T17:04:20.448Z,96055.00
2022-10-06T17:06:55.557Z,96059.06
2022-10-06T17:09:24.401Z,96064.94
2022-10-06T17:12:02.098Z,96066.56
2022-10-06T17:14:30.866Z,96064.44
2022-10-06T17:16:58.835Z,96063.44
2022-10-06T17:19:29.446Z,96070.59
2022-10-06T17:21:59.366Z,96066.00
2022-10-06T17:24:28.648Z,96080.78
2022-10-06T17:26:56.768Z,96076.16
2022-10-06T17:29:24.452Z,96063.56
2022-10-06T17:31:59.270Z,96079.38
2022-10-06T17:34:31.851Z,96078.97
2022-10-06T17:36:59.940Z,96078.50
2022-10-06T17:39:26.833Z,96075.09
2022-10-06T17:41:54.893Z,96076.22
2022-10-06T17:44:35.815Z,96074.38
2022-10-06T17:47:12.405Z,96074.31
2022-10-06T17:49:40.249Z,96080.47
2022-10-06T17:52:07.472Z,96086.97
2022-10-06T17:54:34.687Z,96083.22
2022-10-06T17:57:01.622Z,96081.81
2022-10-06T17:59:31.029Z,96090.91
2022-10-06T18:02:00.760Z,96099.16
2022-10-06T18:04:27.836Z,96095.66
2022-10-06T18:06:55.609Z,96098.09
2022-10-06T18:09:22.878Z,96087.75
2022-10-06T18:11:55.050Z,96098.09
2022-10-06T18:14:27.567Z,96101.44
2022-10-06T18:16:57.977Z,96108.03
2022-10-06T18:19:44.301Z,96102.94
2022-10-06T18:22:11.801Z,96102.84
2022-10-06T18:24:40.185Z,96096.53
2022-10-06T18:27:08.368Z,96094.44
2022-10-06T18:29:37.465Z,96107.28
2022-10-06T18:37:40.304Z,96108.16
2022-10-06T18:40:10.245Z,96105.31
2022-10-06T18:42:38.063Z,96111.63
2022-10-06T18:45:24.116Z,96111.47
2022-10-06T18:48:09.220Z,96097.47
2022-10-06T18:50:36.079Z,96113.53
2022-10-06T18:53:04.628Z,96125.19
2022-10-06T18:55:32.224Z,96121.78
2022-10-06T18:57:59.172Z,96121.09
2022-10-06T19:00:26.208Z,96125.75
2022-10-06T19:02:55.589Z,96118.16
2022-10-06T19:05:22.764Z,96121.84
2022-10-06T19:07:49.598Z,96124.19
2022-10-06T19:10:16.538Z,96119.19
2022-10-06T19:12:43.409Z,96125.22
2022-10-06T19:15:11.450Z,96120.88
2022-10-06T19:17:41.052Z,96126.47
2022-10-06T19:20:10.922Z,96121.56
2022-10-06T19:22:38.631Z,96121.03
2022-10-06T19:25:06.060Z,96129.75
2022-10-06T19:27:36.127Z,96126.88
2022-10-06T19:30:03.351Z,96129.63
2022-10-06T19:32:32.882Z,96133.72
2022-10-06T19:34:59.868Z,96146.69
2022-10-06T19:37:28.292Z,96150.75
2022-10-06T19:39:55.183Z,96152.03
2022-10-06T19:42:40.713Z,96146.69
2022-10-06T19:45:08.872Z,96158.97
2022-10-06T19:47:35.845Z,96158.16
2022-10-06T19:50:10.414Z,96164.31
2022-10-06T19:52:38.999Z,96166.34
2022-10-06T19:55:06.340Z,96160.34
2022-10-06T19:57:33.818Z,96166.75
2022-10-06T20:00:01.124Z,96161.00
2022-10-06T20:02:29.132Z,96166.63
2022-10-06T20:04:56.918Z,96157.06
2022-10-06T20:07:28.112Z,96153.09
2022-10-06T20:09:55.977Z,96155.00
2022-10-06T20:12:25.325Z,96153.53
2022-10-06T20:14:53.890Z,96155.00
2022-10-06T20:17:23.290Z,96153.91
2022-10-06T20:19:56.722Z,96151.47
2022-10-06T20:22:25.459Z,96148.22
2022-10-06T20:24:52.563Z,96156.47
2022-10-06T20:27:20.476Z,96156.47
2022-10-06T20:29:47.331Z,96143.63
2022-10-06T20:32:14.690Z,96158.09
2022-10-06T20:34:41.613Z,96162.56
2022-10-06T20:37:08.459Z,96152.34
2022-10-06T20:39:54.247Z,96157.53
2022-10-06T20:42:21.529Z,96159.28
2022-10-06T20:44:48.357Z,96156.97
2022-10-06T20:47:16.743Z,96164.28
2022-10-06T20:49:44.096Z,96161.41
2022-10-06T20:52:14.552Z,96159.75
2022-10-06T20:54:41.946Z,96162.63
2022-10-06T20:57:09.724Z,96154.81
2022-10-06T20:59:37.628Z,96164.53
2022-10-06T21:02:06.238Z,96164.53
2022-10-06T21:04:35.110Z,96166.44
2022-10-06T21:07:05.913Z,96160.81
2022-10-06T21:09:32.937Z,96157.78
2022-10-06T21:12:01.964Z,96160.50
2022-10-06T21:14:30.259Z,96167.75
2022-10-06T21:16:57.199Z,96168.25
2022-10-06T21:19:25.248Z,96161.56
2022-10-06T21:21:53.825Z,96168.25
2022-10-06T21:24:22.387Z,96155.41
2022-10-06T21:26:49.406Z,96154.31
2022-10-06T21:29:16.592Z,96168.75
2022-10-06T21:31:44.341Z,96175.16
2022-10-06T21:34:11.181Z,96166.00
2022-10-06T21:36:38.422Z,96171.19
2022-10-06T21:39:06.360Z,96183.16
2022-10-06T21:41:41.325Z,96174.16
2022-10-06T21:44:08.087Z,96178.50
2022-10-06T21:46:37.652Z,96188.03
2022-10-06T21:49:07.271Z,96179.56
2022-10-06T21:51:34.250Z,96173.13
2022-10-06T21:54:02.369Z,96185.25
2022-10-06T21:56:31.239Z,96176.50
2022-10-06T21:58:58.661Z,96175.56
2022-10-06T22:01:31.070Z,96169.13
2022-10-06T22:04:00.479Z,96163.91
2022-10-06T22:06:31.773Z,96168.81
2022-10-06T22:08:59.880Z,96156.16
2022-10-06T22:11:33.205Z,96163.91
2022-10-06T22:14:02.999Z,96167.31
2022-10-06T22:16:32.249Z,96153.13
2022-10-06T22:18:59.703Z,96160.88
2022-10-06T22:21:34.187Z,96163.00
2022-10-06T22:24:07.118Z,96156.72
2022-10-06T22:26:37.621Z,96147.13
2022-10-06T22:29:06.710Z,96156.16
2022-10-06T22:31:34.330Z,96161.56
2022-10-06T22:34:04.705Z,96155.81
2022-10-06T22:36:31.930Z,96160.97
2022-10-06T22:38:58.828Z,96159.72
2022-10-06T22:41:26.025Z,96156.56
2022-10-06T22:43:57.717Z,96163.38
2022-10-06T22:46:26.617Z,96162.00
2022-10-06T22:48:53.525Z,96149.69
2022-10-06T22:51:20.771Z,96164.13
2022-10-06T22:53:56.535Z,96160.84
2022-10-06T22:56:31.659Z,96151.69
2022-10-06T22:59:02.234Z,96153.44
2022-10-06T23:01:30.013Z,96157.44
2022-10-06T23:03:57.826Z,96157.81
2022-10-06T23:06:24.959Z,96164.75
2022-10-06T23:08:51.982Z,96155.16
2022-10-06T23:11:21.436Z,96161.03
2022-10-06T23:13:51.284Z,96159.50
2022-10-06T23:16:20.042Z,96168.44
2022-10-06T23:18:47.894Z,96165.16
2022-10-06T23:21:22.938Z,96165.38
2022-10-06T23:23:55.376Z,96172.88
2022-10-06T23:26:23.378Z,96160.81
2022-10-06T23:28:56.812Z,96162.69
2022-10-06T23:31:24.353Z,96173.00
2022-10-06T23:33:51.240Z,96167.25
2022-10-06T23:36:18.496Z,96164.47
2022-10-06T23:38:46.127Z,96175.25
2022-10-06T23:41:13.474Z,96172.66
2022-10-06T23:43:40.351Z,96178.09
2022-10-06T23:46:07.956Z,96180.28
2022-10-06T23:48:34.939Z,96164.09
2022-10-06T23:51:04.907Z,96165.84
2022-10-06T23:53:32.463Z,96171.59
2022-10-06T23:55:59.418Z,96175.94
2022-10-06T23:58:27.617Z,96165.31
